Spalding, United Kingdom
Current Conditions -  °F | °C
As of 8:50 AM on Wednesday 26 Nov 2014 (Local Time) from EGXT Reporting Station
Haze Haze  
Wind Chill: 39°   Ceiling: Unl
Heat Index: 45°   Visibility: 0.81mi
Dew Point: 45°   Wind: 10mph
Humidity: 100%   Direction: 70°ENE
Pressure: 29.88"   Gusts: NA
Location:  52.79°N, 0.15°W
Report Text: EGXT 260850Z 07009KT 1300 BR VV/// 07/07 Q1012 RED
Loading
Personal Weather Stations






























Interactive Weather Map New forecast layout! Learn more

10-Day Weather Forecast

Advertisements
Track Severe Weather on mobile